Terminal Aerodrome Forecast
Issued by NWS Charleston, WV

Current Version | Previous Version | Graphics & Text | Print | Product List | Glossary Off
Versions: 1 2 3 4 5 6 7 8 9 10 11 12 13 14 15 16 17 18 19 20 21 22 23 24 25 26

000
FTUS41 KRLX 201140
TAFEKN
TAF
KEKN 201140Z 2012/2112 00000KT 6SM BR HZ OVC060
      TEMPO 2012/2013 4SM BR SCT002
     FM201400 27003KT P6SM BKN045
     FM201900 31004KT P6SM VCSH BKN045
     FM202300 VRB03KT P6SM BKN150
     FM210700 00000KT 5SM BR SCT150
     FM211000 00000KT 1SM BR BKN001=

USA.gov is the U.S. government's official web portal to all federal, state and local government web resources and services.